Time;durP1;ratioP1;P1;durP2;ratioP2;P2;SDS_P1;SDS_P2;PMS_P1;PMS_P2;Temp;Humidity;BMP_temperature;BMP_pressure;BME280_temperature;BME280_humidity;BME280_pressure;Samples;Min_cycle;Max_cycle;Signal;HPM_P1;HPM_P2
2023/03/14 00:02:07;;;;;;;8.60;1.80;;;;;;;;;;5029043;28;20026;-76
2023/03/14 00:04:33;;;;;;;4.40;1.40;;;;;;;;;;5031515;28;20088;-76
2023/03/14 00:07:06;;;;;;;5.70;1.33;;;;;;;;;;5035488;28;20037;-76
2023/03/14 00:09:32;;;;;;;9.37;2.33;;;;;;;;;;5036519;28;20052;-76
2023/03/14 00:11:58;;;;;;;8.00;3.63;;;;;;;;;;5014523;28;20025;-76
2023/03/14 00:14:24;;;;;;;8.77;2.30;;;;;;;;;;5037237;28;20066;-76
2023/03/14 00:16:50;;;;;;;9.33;1.60;;;;;;;;;;5010182;28;20034;-75
2023/03/14 00:19:18;;;;;;;9.10;1.60;;;;;;;;;;5017611;28;20116;-75
2023/03/14 00:21:44;;;;;;;9.63;2.87;;;;;;;;;;5031056;28;20029;-76
2023/03/14 00:24:10;;;;;;;5.77;1.60;;;;;;;;;;5010897;28;20092;-76
2023/03/14 00:26:36;;;;;;;5.50;1.73;;;;;;;;;;5017834;28;20033;-75
2023/03/14 00:29:02;;;;;;;12.77;2.20;;;;;;;;;;5037239;28;20078;-76
2023/03/14 00:31:31;;;;;;;6.93;1.77;;;;;;;;;;5034480;28;20079;-76
2023/03/14 00:33:59;;;;;;;8.40;1.83;;;;;;;;;;5031766;28;20528;-76
2023/03/14 00:36:25;;;;;;;10.07;2.27;;;;;;;;;;5008315;28;20108;-76
2023/03/14 00:38:55;;;;;;;7.70;1.97;;;;;;;;;;5025563;28;20030;-75
2023/03/14 00:41:25;;;;;;;12.73;2.73;;;;;;;;;;5027070;28;20025;-75
2023/03/14 00:43:51;;;;;;;6.63;1.87;;;;;;;;;;5021441;28;20434;-76
2023/03/14 00:46:19;;;;;;;8.87;1.83;;;;;;;;;;5035631;28;20339;-76
2023/03/14 00:48:46;;;;;;;8.00;1.73;;;;;;;;;;5023622;28;20471;-75
2023/03/14 00:51:14;;;;;;;5.93;1.30;;;;;;;;;;5014841;28;20029;-74
2023/03/14 00:53:40;;;;;;;10.97;2.63;;;;;;;;;;5023546;28;20044;-75
2023/03/14 00:56:07;;;;;;;9.63;2.73;;;;;;;;;;5026098;28;20056;-76
2023/03/14 00:58:34;;;;;;;7.03;1.60;;;;;;;;;;5012538;28;20508;-76
2023/03/14 01:00:59;;;;;;;19.03;1.83;;;;;;;;;;5029299;28;20052;-76
2023/03/14 01:03:25;;;;;;;6.33;1.70;;;;;;;;;;5012619;28;20029;-75
2023/03/14 01:05:51;;;;;;;12.27;1.90;;;;;;;;;;5026224;28;20053;-76
2023/03/14 01:08:17;;;;;;;9.90;1.63;;;;;;;;;;5007881;28;20104;-76
2023/03/14 01:10:43;;;;;;;9.40;2.53;;;10.30;99.90;;;;;;5027933;28;20487;-76
2023/03/14 01:13:12;;;;;;;14.30;2.20;;;;;;;;;;5010617;28;20034;-75
2023/03/14 01:15:38;;;;;;;6.37;1.60;;;;;;;;;;5011117;28;20034;-77
2023/03/14 01:18:05;;;;;;;5.67;1.40;;;;;;;;;;5012095;28;20041;-76
2023/03/14 01:20:30;;;;;;;3.77;0.90;;;9.50;99.90;;;;;;5025349;28;20099;-76
2023/03/14 01:22:56;;;;;;;9.47;1.63;;;9.50;99.90;;;;;;5011140;28;20450;-76
2023/03/14 01:25:22;;;;;;;5.97;0.90;;;9.40;99.90;;;;;;5010634;28;20112;-75
2023/03/14 01:27:48;;;;;;;3.73;0.63;;;9.30;99.90;;;;;;5010194;28;20026;-75
2023/03/14 01:30:14;;;;;;;6.63;1.03;;;9.30;99.90;;;;;;5024860;28;20018;-75
2023/03/14 01:32:40;;;;;;;7.83;1.23;;;9.30;99.90;;;;;;5009407;28;20060;-76
2023/03/14 01:35:06;;;;;;;6.47;1.00;;;9.20;99.90;;;;;;5008286;28;20459;-75
2023/03/14 01:37:33;;;;;;;7.23;1.40;;;9.20;99.90;;;;;;5011568;28;20030;-74
2023/03/14 01:39:59;;;;;;;10.17;1.67;;;9.20;99.90;;;;;;5024795;28;20058;-76
2023/03/14 01:42:25;;;;;;;6.43;1.30;;;9.20;99.90;;;;;;5026243;28;20103;-74
2023/03/14 01:44:55;;;;;;;9.20;1.63;;;9.20;99.90;;;;;;5010763;28;20465;-75
2023/03/14 01:47:21;;;;;;;5.30;1.50;;;9.20;99.90;;;;;;5012926;28;20108;-75
2023/03/14 01:50:09;;;;;;;6.33;1.30;;;9.20;99.90;;;;;;5009876;28;20120;-75
2023/03/14 01:52:37;;;;;;;6.60;1.37;;;9.30;99.90;;;;;;5027354;28;20025;-76
2023/03/14 01:55:13;;;;;;;7.77;2.00;;;9.40;99.90;;;;;;5011180;28;20083;-75
2023/03/14 01:57:55;;;;;;;6.43;1.70;;;9.40;99.90;;;;;;5028458;28;20025;-76
2023/03/14 02:00:26;;;;;;;7.00;1.37;;;9.40;99.90;;;;;;5008478;28;20030;-76
2023/03/14 02:02:55;;;;;;;8.73;1.30;;;9.40;99.90;;;;;;5009164;28;20025;-75
2023/03/14 02:05:25;;;;;;;7.57;1.50;;;9.30;99.90;;;;;;5026914;28;20044;-76
2023/03/14 02:07:53;;;;;;;7.23;1.00;;;9.40;99.90;;;;;;5011405;28;20109;-77
2023/03/14 02:10:24;;;;;;;8.13;1.37;;;9.30;99.90;;;;;;5010928;28;20117;-77
2023/03/14 02:12:53;;;;;;;5.87;1.23;;;9.20;99.90;;;;;;5026415;28;20029;-75
2023/03/14 02:15:18;;;;;;;4.60;1.10;;;9.20;99.90;;;;;;5008281;28;20032;-75
2023/03/14 02:17:47;;;;;;;8.73;1.57;;;9.10;99.90;;;;;;5007650;28;20124;-75
2023/03/14 02:20:24;;;;;;;7.87;1.50;;;9.10;99.90;;;;;;5010450;28;20167;-77
2023/03/14 02:22:53;;;;;;;7.67;1.37;;;;;;;;;;5011576;28;20056;-76
2023/03/14 02:25:56;;;;;;;7.20;1.37;;;9.10;99.90;;;;;;5010673;28;20095;-77
2023/03/14 02:28:22;;;;;;;;;;;9.10;99.90;;;;;;5011154;28;20025;-74
2023/03/14 02:30:48;;;;;;;2.43;0.60;;;9.00;99.90;;;;;;5007549;28;20273;-75
2023/03/14 02:33:18;;;;;;;5.30;1.00;;;9.10;99.90;;;;;;5010277;28;20075;-75
2023/03/14 02:35:59;;;;;;;4.47;0.60;;;9.00;99.90;;;;;;5008409;28;20036;-76
2023/03/14 02:38:29;;;;;;;3.57;0.50;;;9.10;99.90;;;;;;5025333;28;20025;-75
2023/03/14 02:40:54;;;;;;;1.60;0.50;;;9.10;99.90;;;;;;5021728;28;20057;-74
2023/03/14 02:43:20;;;;;;;3.60;0.83;;;9.10;99.90;;;;;;5008236;28;20033;-76
2023/03/14 02:45:50;;;;;;;5.50;0.90;;;9.10;99.90;;;;;;5008877;28;20029;-76
2023/03/14 02:48:18;;;;;;;4.27;0.77;;;9.00;99.90;;;;;;5025636;28;20033;-75
2023/03/14 02:50:50;;;;;;;5.33;1.27;;;8.90;99.90;;;;;;5006169;28;20017;-76
2023/03/14 02:53:21;;;;;;;1.60;0.60;;;8.90;99.90;;;;;;5030608;28;20026;-76
2023/03/14 02:55:52;;;;;;;5.57;0.87;;;8.80;99.90;;;;;;5018383;28;20095;-76
2023/03/14 02:58:19;;;;;;;4.50;1.30;;;8.70;99.90;;;;;;5038567;28;20025;-75
2023/03/14 03:00:46;;;;;;;11.63;1.83;;;8.60;99.90;;;;;;5034579;28;20052;-75
2023/03/14 03:03:14;;;;;;;10.47;2.30;;;8.70;99.90;;;;;;5027377;28;20021;-75
2023/03/14 03:05:43;;;;;;;9.37;2.17;;;8.60;99.90;;;;;;5039365;28;20018;-76
2023/03/14 03:08:10;;;;;;;9.20;2.47;;;8.70;99.90;;;;;;5029967;28;20033;-76
2023/03/14 03:10:35;;;;;;;13.27;2.97;;;8.70;99.90;;;;;;5017562;28;20342;-76
2023/03/14 03:13:04;;;;;;;10.90;2.43;;;8.70;99.90;;;;;;5014442;28;20032;-75
2023/03/14 03:15:30;;;;;;;9.40;2.70;;;8.70;99.90;;;;;;5016020;28;20346;-76
2023/03/14 03:17:58;;;;;;;9.13;2.20;;;8.70;99.90;;;;;;5017031;28;20401;-76
2023/03/14 03:20:24;;;;;;;7.43;1.50;;;8.80;99.90;;;;;;5025802;28;20045;-76
2023/03/14 03:22:49;;;;;;;8.63;2.03;;;8.90;99.90;;;;;;5031639;28;20057;-77
2023/03/14 03:25:15;;;;;;;6.87;2.00;;;8.90;99.90;;;;;;5016466;28;20445;-76
2023/03/14 03:27:43;;;;;;;7.23;1.40;;;8.80;99.90;;;;;;5034960;28;20033;-75
2023/03/14 03:30:12;;;;;;;13.60;2.30;;;8.80;99.90;;;;;;5016773;28;20112;-76
2023/03/14 03:32:37;;;;;;;15.83;2.53;;;8.90;99.90;;;;;;5022855;28;20116;-75
2023/03/14 03:35:04;;;;;;;11.47;2.87;;;9.00;99.90;;;;;;5022923;28;20512;-75
2023/03/14 03:37:31;;;;;;;11.37;1.80;;;9.20;99.90;;;;;;5002052;28;20037;-75
2023/03/14 03:40:00;;;;;;;10.53;2.53;;;9.30;99.90;;;;;;5031480;28;20026;-75
2023/03/14 03:42:27;;;;;;;13.27;2.43;;;9.40;99.90;;;;;;5035153;28;20029;-75
2023/03/14 03:44:52;;;;;;;8.87;1.77;;;9.40;99.90;;;;;;5033451;28;20039;-76
2023/03/14 03:47:20;;;;;;;10.27;2.13;;;9.50;99.90;;;;;;5014253;28;20100;-75
2023/03/14 03:49:46;;;;;;;12.13;1.67;;;9.50;99.90;;;;;;5019739;28;20014;-75
2023/03/14 03:52:14;;;;;;;9.10;1.57;;;9.50;99.90;;;;;;5026461;28;20100;-76
2023/03/14 03:54:42;;;;;;;9.00;1.60;;;9.60;99.90;;;;;;5027450;28;20022;-76
2023/03/14 03:57:08;;;;;;;8.90;1.83;;;9.60;99.90;;;;;;5031301;28;20548;-76
2023/03/14 03:59:33;;;;;;;13.40;1.93;;;9.60;99.90;;;;;;5013773;28;20060;-76
2023/03/14 04:01:59;;;;;;;7.50;1.57;;;9.70;99.90;;;;;;5021988;28;20026;-76
2023/03/14 04:04:25;;;;;;;8.17;1.60;;;9.80;99.90;;;;;;5024593;28;20175;-76
2023/03/14 04:06:53;;;;;;;5.33;1.20;;;9.80;99.90;;;;;;5020092;28;20418;-75
2023/03/14 04:09:18;;;;;;;6.37;1.47;;;9.80;99.90;;;;;;5028449;28;20048;-75
2023/03/14 04:11:44;;;;;;;14.30;1.57;;;9.80;99.90;;;;;;5005536;28;20069;-76
2023/03/14 04:14:09;;;;;;;6.37;1.27;;;9.80;99.90;;;;;;5026066;28;20095;-76
2023/03/14 04:16:37;;;;;;;6.40;1.50;;;9.80;99.90;;;;;;5033513;28;20022;-76
2023/03/14 04:19:05;;;;;;;11.03;1.57;;;9.70;99.90;;;;;;5016758;28;20365;-76
2023/03/14 04:21:31;;;;;;;8.47;1.60;;;9.60;99.90;;;;;;5025815;28;20025;-76
2023/03/14 04:23:59;;;;;;;6.77;1.33;;;9.50;99.90;;;;;;5013819;28;20087;-76
2023/03/14 04:26:24;;;;;;;5.63;1.30;;;9.50;99.90;;;;;;5018895;28;20513;-76
2023/03/14 04:28:50;;;;;;;7.47;1.50;;;9.50;99.90;;;;;;5036396;28;20061;-76
2023/03/14 04:31:20;;;;;;;7.73;1.60;;;9.50;99.90;;;;;;5012750;28;20032;-76
2023/03/14 04:33:46;;;;;;;10.23;2.03;;;9.50;99.90;;;;;;5015356;28;20021;-76
2023/03/14 04:36:12;;;;;;;10.07;1.87;;;9.40;99.90;;;;;;5012774;28;20354;-76
2023/03/14 04:38:38;;;;;;;6.90;1.10;;;9.40;99.90;;;;;;5016409;28;20025;-75
2023/03/14 04:41:05;;;;;;;5.10;1.00;;;9.40;99.90;;;;;;5025226;28;20044;-75
2023/03/14 04:43:31;;;;;;;4.93;1.27;;;9.50;99.90;;;;;;5027853;28;20120;-76
2023/03/14 04:45:58;;;;;;;5.03;0.87;;;9.50;99.90;;;;;;5034669;28;20101;-76
2023/03/14 04:48:24;;;;;;;5.10;1.20;;;9.40;99.90;;;;;;5026773;28;20026;-75
2023/03/14 04:50:50;;;;;;;11.23;1.03;;;9.50;99.90;;;;;;5033563;28;20036;-76
2023/03/14 04:53:17;;;;;;;6.07;0.87;;;9.50;99.90;;;;;;5014903;28;20041;-76
2023/03/14 04:55:49;;;;;;;9.30;1.60;;;9.60;99.90;;;;;;5017416;28;20032;-76
2023/03/14 04:58:18;;;;;;;4.13;1.10;;;9.50;99.90;;;;;;5034780;28;20064;-76
2023/03/14 05:00:44;;;;;;;5.17;0.77;;;9.50;99.90;;;;;;5000297;28;20030;-76
2023/03/14 05:03:11;;;;;;;6.50;1.33;;;9.50;99.90;;;;;;5020797;28;20417;-75
2023/03/14 05:05:37;;;;;;;3.83;0.80;;;9.50;99.90;;;;;;5027288;28;20346;-76
2023/03/14 05:08:05;;;;;;;6.50;0.80;;;9.40;99.90;;;;;;5025674;28;20017;-76
2023/03/14 05:10:30;;;;;;;9.93;0.90;;;9.40;99.90;;;;;;5026532;28;20490;-76
2023/03/14 05:12:56;;;;;;;3.83;0.90;;;9.40;99.90;;;;;;5032105;28;20100;-76
2023/03/14 05:15:22;;;;;;;4.00;1.27;;;9.50;99.90;;;;;;5017134;28;20052;-76
2023/03/14 05:17:48;;;;;;;7.30;1.07;;;9.50;99.90;;;;;;5015783;28;20075;-76
2023/03/14 05:20:16;;;;;;;3.90;1.10;;;9.50;99.90;;;;;;5023307;28;20037;-76
2023/03/14 05:22:42;;;;;;;1.90;0.63;;;9.50;99.90;;;;;;5015843;28;20342;-76
2023/03/14 05:25:09;;;;;;;5.30;1.20;;;9.60;99.90;;;;;;5023413;28;20040;-76
2023/03/14 05:27:38;;;;;;;2.37;0.50;;;9.60;99.90;;;;;;5035414;28;20445;-76
2023/03/14 05:30:05;;;;;;;1.57;0.60;;;9.60;99.90;;;;;;5018138;28;20028;-76
2023/03/14 05:32:31;;;;;;;3.60;1.13;;;9.60;99.90;;;;;;5018129;28;20132;-76
2023/03/14 05:34:58;;;;;;;3.03;0.40;;;9.70;99.90;;;;;;5018323;28;20077;-75
2023/03/14 05:37:25;;;;;;;3.33;0.60;;;9.70;99.90;;;;;;5018661;28;20087;-76
2023/03/14 05:39:51;;;;;;;1.30;0.53;;;9.60;99.90;;;;;;5033517;28;20100;-75
2023/03/14 05:42:16;;;;;;;2.53;0.60;;;9.60;99.90;;;;;;5014343;28;20113;-76
2023/03/14 05:44:44;;;;;;;1.20;0.50;;;9.70;99.90;;;;;;5029817;28;20052;-76
2023/03/14 05:47:10;;;;;;;2.33;0.40;;;9.70;99.90;;;;;;5017174;28;20018;-76
2023/03/14 05:49:37;;;;;;;1.23;0.30;;;9.60;99.90;;;;;;5016758;28;20091;-76
2023/03/14 05:52:03;;;;;;;2.47;0.40;;;9.60;99.90;;;;;;5034368;28;20049;-75
2023/03/14 05:54:31;;;;;;;1.17;0.30;;;9.60;99.90;;;;;;5016993;28;20446;-76
2023/03/14 05:56:56;;;;;;;0.80;0.20;;;9.70;99.90;;;;;;5003609;28;20022;-75
2023/03/14 05:59:22;;;;;;;1.17;0.50;;;9.60;99.90;;;;;;5003850;28;20037;-75
2023/03/14 06:01:48;;;;;;;1.57;0.40;;;9.70;99.90;;;;;;5014851;28;20124;-75
2023/03/14 06:04:13;;;;;;;2.47;0.60;;;9.80;99.90;;;;;;5016375;28;20342;-76
2023/03/14 06:06:39;;;;;;;3.63;0.50;;;9.70;99.90;;;;;;5021528;28;20115;-76
2023/03/14 06:09:06;;;;;;;3.77;0.70;;;9.60;99.90;;;;;;5017758;28;20030;-75
2023/03/14 06:11:34;;;;;;;1.97;0.73;;;9.50;99.90;;;;;;4999655;28;20091;-75
2023/03/14 06:14:00;;;;;;;2.10;0.70;;;9.50;99.90;;;;;;5031952;28;20077;-75
2023/03/14 06:16:26;;;;;;;1.63;0.30;;;9.40;99.90;;;;;;5017373;28;20049;-75
2023/03/14 06:18:52;;;;;;;2.27;0.40;;;9.40;99.90;;;;;;5010948;28;20034;-76
2023/03/14 06:21:19;;;;;;;4.37;0.70;;;9.40;99.90;;;;;;4999050;28;20029;-76
2023/03/14 06:23:45;;;;;;;2.13;0.60;;;9.40;99.90;;;;;;5025081;28;20037;-75
2023/03/14 06:26:11;;;;;;;2.80;0.63;;;9.40;99.90;;;;;;5022801;28;20045;-75
2023/03/14 06:28:37;;;;;;;1.57;0.47;;;9.40;99.90;;;;;;5021737;28;20105;-76
2023/03/14 06:31:06;;;;;;;0.83;0.30;;;9.50;99.90;;;;;;5017330;28;20398;-76
2023/03/14 06:33:31;;;;;;;1.07;0.30;;;9.50;99.90;;;;;;5021352;28;20466;-76
2023/03/14 06:35:57;;;;;;;0.10;0.10;;;9.60;99.90;;;;;;5028148;28;20029;-76
2023/03/14 06:38:22;;;;;;;1.27;0.50;;;9.60;99.90;;;;;;5024951;28;20445;-76
2023/03/14 06:40:48;;;;;;;0.60;0.20;;;9.60;99.90;;;;;;5015519;28;20056;-76
2023/03/14 06:43:13;;;;;;;1.23;0.30;;;9.70;99.90;;;;;;5033201;28;20040;-76
2023/03/14 06:45:39;;;;;;;1.70;0.40;;;9.70;99.90;;;;;;5013988;28;20465;-76
2023/03/14 06:48:05;;;;;;;1.80;0.83;;;9.80;99.90;;;;;;5013941;28;20029;-76
2023/03/14 06:50:30;;;;;;;0.73;0.20;;;9.90;99.90;;;;;;5010151;28;20033;-75
2023/03/14 06:52:56;;;;;;;1.37;0.40;;;10.10;99.90;;;;;;5010074;28;20036;-75
2023/03/14 06:55:22;;;;;;;0.77;0.30;;;10.20;99.90;;;;;;5022494;28;20105;-75
2023/03/14 06:57:47;;;;;;;0.80;0.33;;;10.20;99.90;;;;;;5007138;28;20069;-75
2023/03/14 07:00:16;;;;;;;2.33;0.77;;;10.20;99.90;;;;;;5007874;28;20172;-75
2023/03/14 07:02:41;;;;;;;1.40;0.30;;;10.20;99.90;;;;;;5025878;28;20098;-75
2023/03/14 07:05:07;;;;;;;0.50;0.10;;;10.30;99.90;;;;;;5005974;28;20037;-76
2023/03/14 07:07:35;;;;;;;1.47;0.20;;;10.30;99.90;;;;;;5006150;28;20442;-74
2023/03/14 07:10:03;;;;;;;0.20;0.13;;;10.30;99.90;;;;;;5006751;28;20065;-73
2023/03/14 07:12:28;;;;;;;1.10;0.20;;;10.30;99.90;;;;;;5009485;28;20037;-74
2023/03/14 07:14:54;;;;;;;0.90;0.40;;;10.30;99.90;;;;;;5007488;28;20549;-75
2023/03/14 07:17:19;;;;;;;2.10;0.20;;;10.30;99.90;;;;;;5026150;28;20096;-75
2023/03/14 07:19:47;;;;;;;0.83;0.40;;;10.30;99.90;;;;;;5014546;28;20041;-73
2023/03/14 07:22:13;;;;;;;0.60;0.30;;;10.30;99.90;;;;;;5010465;28;20112;-75
2023/03/14 07:24:40;;;;;;;0.90;0.30;;;10.40;99.90;;;;;;5026114;28;20160;-75
2023/03/14 07:27:06;;;;;;;0.57;0.20;;;10.50;99.90;;;;;;5027218;28;20045;-75
2023/03/14 07:29:32;;;;;;;1.90;0.67;;;10.60;99.90;;;;;;5011138;28;20029;-75
2023/03/14 07:31:57;;;;;;;1.57;0.40;;;10.80;99.90;;;;;;5028963;28;20083;-76
2023/03/14 07:34:23;;;;;;;0.73;0.20;;;11.00;99.90;;;;;;5026727;28;20575;-76
2023/03/14 07:36:48;;;;;;;2.60;1.10;;;11.00;99.90;;;;;;5012080;28;20079;-76
2023/03/14 07:39:14;;;;;;;1.63;0.43;;;11.00;99.90;;;;;;5013184;28;20030;-75
2023/03/14 07:41:42;;;;;;;0.60;0.33;;;11.00;99.90;;;;;;5013431;28;20017;-75
2023/03/14 07:44:07;;;;;;;2.10;1.10;;;11.00;99.90;;;;;;5010991;28;20025;-75
2023/03/14 07:46:33;;;;;;;2.00;1.10;;;11.00;99.90;;;;;;5026363;28;20033;-75
2023/03/14 07:49:01;;;;;;;2.67;0.93;;;11.00;99.90;;;;;;5028625;28;20029;-76
2023/03/14 07:51:26;;;;;;;1.73;0.60;;;11.10;99.90;;;;;;5028772;28;20362;-75
2023/03/14 07:53:54;;;;;;;1.83;0.63;;;11.20;99.90;;;;;;5014809;28;20029;-76
2023/03/14 07:56:20;;;;;;;0.60;0.30;;;11.30;99.90;;;;;;5028383;28;20113;-75
2023/03/14 07:58:48;;;;;;;0.60;0.30;;;11.30;99.90;;;;;;5012202;28;20125;-75
2023/03/14 08:01:18;;;;;;;2.20;0.27;;;11.40;99.90;;;;;;5032730;28;20029;-75
2023/03/14 08:03:44;;;;;;;0.60;0.30;;;11.20;99.90;;;;;;5027902;28;20026;-76
2023/03/14 08:06:09;;;;;;;0.67;0.30;;;11.20;99.90;;;;;;5026528;28;21557;-75
2023/03/14 08:08:35;;;;;;;3.83;0.73;;;11.20;99.90;;;;;;5010732;28;20025;-75
2023/03/14 08:11:05;;;;;;;1.27;0.47;;;11.20;99.90;;;;;;5012688;28;20800;-76
2023/03/14 08:13:31;;;;;;;0.77;0.30;;;11.30;99.90;;;;;;5025548;28;20038;-74
2023/03/14 08:15:59;;;;;;;1.13;0.70;;;11.40;99.90;;;;;;5026821;28;20049;-76
2023/03/14 08:18:24;;;;;;;4.40;1.80;;;11.40;99.90;;;;;;5011555;28;20501;-75
2023/03/14 08:20:50;;;;;;;4.67;2.50;;;11.50;99.90;;;;;;5026074;28;20035;-76
2023/03/14 08:23:15;;;;;;;1.20;0.80;;;11.50;99.90;;;;;;5010642;28;20040;-76
2023/03/14 08:25:43;;;;;;;0.70;0.30;;;11.70;99.90;;;;;;5026376;28;20450;-76
2023/03/14 08:28:11;;;;;;;1.57;0.60;;;11.80;99.90;;;;;;5011396;28;20022;-75
2023/03/14 08:30:40;;;;;;;1.77;0.60;;;11.80;99.90;;;;;;5008757;28;20048;-76
2023/03/14 08:33:06;;;;;;;1.07;0.40;;;11.80;99.90;;;;;;5012160;28;20053;-76
2023/03/14 08:35:34;;;;;;;1.13;0.40;;;11.80;99.90;;;;;;5029345;28;20121;-76
2023/03/14 08:38:00;;;;;;;0.60;0.33;;;;;;;;;;5029466;28;20029;-76
2023/03/14 08:40:26;;;;;;;1.53;1.23;;;;;;;;;;5013616;28;20056;-77
2023/03/14 08:42:52;;;;;;;1.50;0.43;;;;;;;;;;5011535;28;20099;-76
2023/03/14 08:45:18;;;;;;;0.80;0.53;;;;;;;;;;5028569;28;20030;-78
2023/03/14 08:47:44;;;;;;;0.70;0.27;;;;;;;;;;5014176;28;20366;-75
2023/03/14 08:50:11;;;;;;;4.50;0.60;;;;;;;;;;5015991;28;20029;-75
2023/03/14 08:52:39;;;;;;;0.53;0.20;;;;;;;;;;5012118;28;20033;-78
2023/03/14 08:55:06;;;;;;;0.47;0.30;;;;;;;;;;5014005;28;20068;-77
2023/03/14 08:57:32;;;;;;;3.37;0.60;;;;;;;;;;5031637;28;20033;-78
2023/03/14 08:59:58;;;;;;;1.47;0.30;;;;;;;;;;5023549;28;20053;-77
2023/03/14 09:02:25;;;;;;;2.67;0.50;;;;;;;;;;5015675;28;20095;-75
2023/03/14 09:04:51;;;;;;;5.03;0.67;;;;;;;;;;5019036;28;20037;-78
2023/03/14 09:07:18;;;;;;;1.00;0.57;;;;;;;;;;5019138;28;20022;-77
2023/03/14 09:09:44;;;;;;;1.23;0.43;;;;;;;;;;5014620;28;20022;-77
2023/03/14 09:12:12;;;;;;;2.80;0.47;;;;;;;;;;5030810;28;20453;-76
2023/03/14 09:14:38;;;;;;;2.47;0.93;;;;;;;;;;5031751;28;20160;-78
2023/03/14 09:17:04;;;;;;;1.13;0.50;;;;;;;;;;5030506;28;20033;-78
2023/03/14 09:19:30;;;;;;;1.03;0.30;;;;;;;;;;5016822;28;20534;-77
2023/03/14 09:21:56;;;;;;;1.77;0.30;;;;;;;;;;5018874;28;20043;-78
2023/03/14 09:24:22;;;;;;;0.30;0.30;;;;;;;;;;5012336;28;20408;-75
2023/03/14 09:26:48;;;;;;;0.37;0.20;;;;;;;;;;5032291;28;20026;-77
2023/03/14 09:29:14;;;;;;;0.77;0.30;;;;;;;;;;5025159;28;20021;-75
2023/03/14 09:31:40;;;;;;;3.37;0.60;;;;;;;;;;5026034;28;20116;-76
2023/03/14 09:34:06;;;;;;;1.97;0.30;;;;;;;;;;5027473;28;20064;-75
2023/03/14 09:36:32;;;;;;;1.30;0.30;;;;;;;;;;5032528;28;20446;-77
2023/03/14 09:38:58;;;;;;;2.13;0.57;;;9.30;99.90;;;;;;5040366;28;20025;-76
2023/03/14 09:41:33;;;;;;;1.53;0.40;;;9.20;99.90;;;;;;5017385;28;20095;-79
2023/03/14 09:44:22;;;;;;;2.57;0.40;;;;;;;;;;5017725;28;20160;-77
2023/03/14 09:46:51;;;;;;;2.50;0.70;;;;;;;;;;5013807;28;20026;-77
2023/03/14 09:49:36;;;;;;;0.50;0.50;;;;;;;;;;5026881;28;20026;-77
2023/03/14 09:52:11;;;;;;;1.40;0.80;;;;;;;;;;5009680;28;20056;-76
2023/03/14 09:54:36;;;;;;;0.93;0.63;;;;;;;;;;5017448;28;20033;-78
2023/03/14 09:57:03;;;;;;;1.67;0.90;;;;;;;;;;5028448;28;20025;-78
2023/03/14 09:59:29;;;;;;;1.07;0.97;;;;;;;;;;5014156;28;20152;-77
2023/03/14 10:01:58;;;;;;;4.00;0.70;;;;;;;;;;5027934;28;20034;-76
2023/03/14 10:04:27;;;;;;;1.83;0.90;;;;;;;;;;5019359;28;20022;-76
2023/03/14 10:06:53;;;;;;;1.73;1.47;;;;;;;;;;5014767;28;20049;-76
2023/03/14 10:09:25;;;;;;;2.90;2.40;;;8.30;99.90;;;;;;5027640;28;20472;-76
2023/03/14 10:11:52;;;;;;;3.07;2.70;;;;;;;;;;5006089;28;20052;-77
2023/03/14 10:14:29;;;;;;;2.50;1.87;;;;;;;;;;5032441;28;20030;-77
2023/03/14 10:16:54;;;;;;;4.80;1.70;;;8.10;99.90;;;;;;5021764;28;20022;-78
2023/03/14 10:19:20;;;;;;;3.40;2.57;;;8.10;99.90;;;;;;5035672;28;20494;-76
2023/03/14 10:21:53;;;;;;;5.17;2.53;;;7.90;99.90;;;;;;5020674;28;20024;-75
2023/03/14 10:24:26;;;;;;;6.13;2.30;;;7.90;99.90;;;;;;5032028;28;20035;-78
2023/03/14 10:26:53;;;;;;;;;;;7.90;99.90;;;;;;5043867;28;20025;-77
2023/03/14 10:29:21;;;;;;;4.47;2.17;;;7.90;99.90;;;;;;5023425;28;19916;-76
2023/03/14 10:31:55;;;;;;;2.70;1.63;;;;;;;;;;5032932;28;20046;-78
2023/03/14 10:34:24;;;;;;;3.87;1.57;;;;;;;;;;5033016;28;20022;-77
2023/03/14 10:36:54;;;;;;;3.70;1.30;;;;;;;;;;5007976;28;20017;-77
2023/03/14 10:39:27;;;;;;;5.67;1.60;;;;;;;;;;5016678;28;20021;-75
2023/03/14 10:41:54;;;;;;;2.75;1.60;;;;;;;;;;5009576;28;20109;-76
2023/03/14 10:44:23;;;;;;;6.03;1.70;;;7.80;99.90;;;;;;5009463;28;20033;-76
2023/03/14 10:47:03;;;;;;;3.87;1.30;;;;;;;;;;4997026;28;20038;-77
2023/03/14 10:49:31;;;;;;;5.10;1.40;;;;;;;;;;5033487;28;20108;-77
2023/03/14 10:52:01;;;;;;;2.83;1.97;;;;;;;;;;5032220;28;20092;-77
2023/03/14 10:54:30;;;;;;;5.13;2.27;;;;;;;;;;5035192;28;20040;-76
2023/03/14 10:57:03;;;;;;;5.00;1.63;;;8.00;99.90;;;;;;5015123;28;20072;-76
2023/03/14 10:59:35;;;;;;;8.13;0.90;;;;;;;;;;5026526;28;20022;-76
2023/03/14 11:02:10;;;;;;;3.17;1.02;;;;;;;;;;5037544;28;20048;-77
2023/03/14 11:04:48;;;;;;;4.90;0.77;;;;;;;;;;5007443;28;20442;-76
2023/03/14 11:07:35;;;;;;;1.77;1.23;;;8.10;99.90;;;;;;5037986;28;20025;-77
2023/03/14 11:10:01;;;;;;;1.87;1.23;;;;;;;;;;5020382;28;20021;-76
2023/03/14 11:12:30;;;;;;;5.70;2.80;;;;;;;;;;5020334;28;20026;-76
2023/03/14 11:15:06;;;;;;;4.97;2.83;;;;;;;;;;5020087;28;20025;-77
2023/03/14 11:17:46;;;;;;;3.80;2.10;;;;;;;;;;5022828;28;20037;-78
2023/03/14 11:20:27;;;;;;;4.20;2.80;;;8.50;99.90;;;;;;5014225;28;20470;-78
2023/03/14 11:22:57;;;;;;;2.93;1.50;;;;;;;;;;5016268;28;20084;-75
2023/03/14 11:25:44;;;;;;;6.03;1.93;;;;;;;;;;5036412;28;20040;-76
2023/03/14 11:28:22;;;;;;;4.80;2.20;;;;;;;;;;5008414;28;20026;-77
2023/03/14 11:30:52;;;;;;;4.50;1.80;;;;;;;;;;5028468;28;20108;-77
2023/03/14 11:33:23;;;;;;;6.93;2.23;;;;;;;;;;5018594;28;20026;-77
2023/03/14 11:36:02;;;;;;;5.63;2.80;;;;;;;;;;5030754;28;20029;-77
2023/03/14 11:38:35;;;;;;;2.60;0.50;;;;;;;;;;5031162;28;20060;-78
2023/03/14 11:41:01;;;;;;;1.08;0.32;;;;;;;;;;5031063;28;20099;-77
2023/03/14 11:43:34;;;;;;;1.40;0.40;;;;;;;;;;5034322;28;20042;-77
2023/03/14 11:46:15;;;;;;;4.83;0.63;;;;;;;;;;5035263;28;20045;-78
2023/03/14 11:49:00;;;;;;;1.13;0.40;;;;;;;;;;5011847;28;20064;-78
2023/03/14 11:51:31;;;;;;;1.40;0.50;;;;;;;;;;5017566;28;20025;-77
2023/03/14 11:54:16;;;;;;;1.37;0.33;;;;;;;;;;5019539;28;20029;-78
2023/03/14 11:56:52;;;;;;;3.23;0.70;;;;;;;;;;5032519;28;20033;-78
2023/03/14 11:59:22;;;;;;;2.20;0.60;;;;;;;;;;5022542;28;20029;-77
2023/03/14 12:01:57;;;;;;;2.53;0.83;;;;;;;;;;5028439;28;20026;-77
2023/03/14 12:04:38;;;;;;;7.43;1.20;;;;;;;;;;5000886;28;20025;-78
2023/03/14 12:07:10;;;;;;;7.37;1.40;;;;;;;;;;5017993;28;20044;-78
2023/03/14 12:09:36;;;;;;;4.13;1.70;;;;;;;;;;5034365;28;20037;-77
2023/03/14 12:12:04;;;;;;;3.47;1.50;;;;;;;;;;5001738;28;20155;-77
2023/03/14 12:14:30;;;;;;;4.93;1.30;;;;;;;;;;5030355;28;20109;-77
2023/03/14 12:16:58;;;;;;;4.57;1.83;;;;;;;;;;5027764;28;20050;-77
2023/03/14 12:19:23;;;;;;;3.93;1.70;;;;;;;;;;5004832;28;20025;-77
2023/03/14 12:22:16;;;;;;;2.50;1.00;;;;;;;;;;5013591;28;20022;-78
2023/03/14 12:24:51;;;;;;;4.85;1.42;;;7.00;99.90;;;;;;5001033;28;20041;-77
2023/03/14 12:27:44;;;;;;;3.50;1.23;;;7.00;99.90;;;;;;5019152;28;20049;-77
2023/03/14 12:30:24;;;;;;;4.63;0.70;;;7.00;99.90;;;;;;5022591;28;20029;-76
2023/03/14 12:33:20;;;;;;;4.30;0.80;;;7.00;99.90;;;;;;5001439;28;20045;-77
2023/03/14 12:35:49;;;;;;;3.73;0.83;;;;;;;;;;5028160;28;20120;-77
2023/03/14 12:38:27;;;;;;;2.43;0.73;;;7.00;99.90;;;;;;5036247;28;20025;-76
2023/03/14 12:40:57;;;;;;;4.23;0.67;;;6.90;99.90;;;;;;5025991;28;20025;-76
2023/03/14 12:43:31;;;;;;;3.37;0.90;;;;;;;;;;5006673;28;20055;-76
2023/03/14 12:46:16;;;;;;;2.90;0.80;;;6.90;99.90;;;;;;5034997;28;20017;-77
2023/03/14 12:48:44;;;;;;;3.97;0.80;;;;;;;;;;5005000;28;20030;-76
2023/03/14 12:51:18;;;;;;;1.43;0.70;;;6.80;99.90;;;;;;5012083;28;20036;-77
2023/03/14 12:54:15;;;;;;;4.10;0.97;;;6.70;99.90;;;;;;5027845;28;20034;-76
2023/03/14 12:56:50;;;;;;;7.30;1.63;;;;;;;;;;5012762;28;20080;-75
2023/03/14 12:59:37;;;;;;;3.47;1.07;;;6.50;99.90;;;;;;5024685;28;20122;-76
2023/03/14 13:02:25;;;;;;;3.30;1.00;;;6.50;99.90;;;;;;5007868;28;20026;-77
2023/03/14 13:05:01;;;;;;;8.00;1.60;;;;;;;;;;5012413;28;20033;-76
2023/03/14 13:07:39;;;;;;;4.73;1.30;;;;;;;;;;5026722;28;20033;-77
2023/03/14 13:10:08;;;;;;;1.83;0.67;;;6.50;99.90;;;;;;5026180;28;20052;-76
2023/03/14 13:12:42;;;;;;;6.83;1.20;;;6.50;99.90;;;;;;5025618;28;20030;-75
2023/03/14 13:15:26;;;;;;;5.10;1.07;;;6.60;99.90;;;;;;5008868;28;21666;-76
2023/03/14 13:17:54;;;;;;;5.23;1.60;;;6.60;99.90;;;;;;5023744;28;20065;-77
2023/03/14 13:20:27;;;;;;;5.43;0.70;;;;;;;;;;5020984;28;20049;-76
2023/03/14 13:22:55;;;;;;;;;;;6.70;99.90;;;;;;5029864;28;20021;-77
2023/03/14 13:25:22;;;;;;;6.33;1.00;;;6.80;99.90;;;;;;5023765;28;19913;-76
2023/03/14 13:27:52;;;;;;;4.47;1.00;;;6.80;99.90;;;;;;5018112;28;20036;-77
2023/03/14 13:30:35;;;;;;;4.63;1.57;;;6.90;99.90;;;;;;5027804;28;20022;-77
2023/03/14 13:33:04;;;;;;;3.67;0.90;;;7.00;99.90;;;;;;5029718;28;20024;-76
2023/03/14 13:35:38;;;;;;;7.13;0.87;;;6.90;99.90;;;;;;5018155;28;20473;-76
2023/03/14 13:38:04;;;;;;;8.60;1.47;;;;;;;;;;5006943;28;20021;-75
2023/03/14 13:40:34;;;;;;;11.33;1.47;;;6.50;99.90;;;;;;5026984;28;20144;-76